BRU weather

Brussels Airport
Brussels, Brussels-Capital Region, Belgium

Public forecast

Using degrees Celsius for public forecast. Weather courtesy of forecast.io.

METAR (pilot weather report)

Retrieved 2017/05/28 23:20 UTC (33 minutes ago):

EBBR 282320Z 08003KT CAVOK 20/17 Q1014 NOSIG

TAF (pilot weather forecast)

Retrieved 2017/05/28 18:27 UTC (5 hours ago):

TAF TAF EBBR 281700Z 2818/2924 05005KT CAVOK PROB30 TEMPO 2912/2921 3500 SHRA TSRA BECMG 2914/2916 30010KT